Alpine Airstrip, AK

5:51 AM AKDT on August 28, 2014 (GMT -0800)
Nuiqsut | Change Station
CLOSE
Current Station
Airport
Location: Nuiqsut,
Elevation: 39 ft
Nearby Weather Stations

Elev 39 ft 70.21 °N, 150.99 °W | Updated 58 minutes ago

Overcast
Overcast
47 °F
Feels Like 47 °F
N
9
Wind Variable Wind from South

Today
High -- | Low -- °F
--% Chance of Precip.
Yesterday
High -- | Low -- °F
Precip. -- in
6:00 AM 10:06 PM
Waxing Crescent, 8% visible
Pressure 29.50 in
Visibility 10.0 miles
Clouds Overcast 5500 ft
Dew Point 44 °F
Humidity 90%
Rainfall 0.01 in
Snow Depth Not available.
UV 0 out of 12
Pollen Not available.
Air Quality Not available.
Flu Activity Not available.
METAR PAQT 281253Z AUTO 17008KT 10SM OVC055 08/07 A2949 RMK RAE42 SLP988 P0000 T00830067 TSNO VIA AUTODIAL

More Conditions Fewer Conditions

Pressure 29.50 in
Visibility 10.0 miles
Clouds Overcast 5500 ft
Dew Point 44 °F
Humidity 90%
Rainfall 0.01 in
Snow Depth Not available.
UV 0 out of 12
Pollen Not available.
Air Quality Not available.
Flu Activity Not available.
METAR PAQT 281253Z AUTO 17008KT 10SM OVC055 08/07 A2949 RMK RAE42 SLP988 P0000 T00830067 TSNO VIA AUTODIAL

More Conditions Fewer Conditions

10-Day Weather Forecast

Almanac

Astronomy

Aug. 28, 2014 Rise Set
Actual Time 6:00 AM AKDT 10:06 PM AKDT
Civil Twilight 4:36 AM AKDT 11:28 PM AKDT
Nautical Twilight Sun does not rise 1:32 AM AKDT
Astronomical Twilight Sun does not rise Sun does not rise
Moon 11:11 AM AKDT 9:16 PM AKDT
Length of Visible Light 18h 52m
Length of Day
16h 05m
Tomorrow will be 9m 29s shorter.
Waxing Crescent, 8% of the Moon is Illuminated
Today
Waxing Crescent
Sep 2
First Quarter
Sep 8
Full
Sep 15
Last Quarter
Sep 24
New

Today's Extremes

State Highs State Lows

Community

WunderPhotos

Upload Photos

1,747,954 photos uploaded!

Nearby

Snow Depth

Station Depth Elevation
Atigun Pass 0 in 4800 ft
Coldfoot 1 in 1040 ft
Gobblers Knob 0 in 2030 ft
Fort Yukon 1 in 430 ft
Eagle Summit 0 in 3650 ft

Earthquake Activity

City Distance Mag. Time & Date
No recent earthquake activity has been reported nearby.
Minimum magnitude displayed is 2.5.

Coastal Water Temperatures

Place Temperature
No Stations Reporting

Nearby Weather Stations